Flugplatz Bopfingen (EDNQ)

Hier findest Du alle Informationen zum Flugplatz Bopfingen (EDNQ).

Informationen für Piloten zum Flugplatz Bopfingen

Hier findest Du alle relevanten Informationen, die Du als Pilot benötigst, um Bopfingen anzufliegen.

Flugplatz: Bopfingen ICAO-Code: EDNQ
Frequenz Turm: 122,850 Mhz GAFOR Gebiet: 62
Frequenz Ground: 122,850 Mhz Mogas: nein
Platzrunde: S 2700 ft Landegebühr: -
Platzhöhe: - Sunrise: 06:57 Uhr UTC
Pisten: 07/25 - 620 m x 30 m, Sunset: 15:24 Uhr UTC

Mitglieder, die in Bopfingen fliegen

Flugwetter am Flugplatz Bopfingen

Die METAR Information stammen aus EDMA (64.37 km entfernt).

METAR Code:
2021/11/29 10:20
EDMA 291020Z 26005KT 1200 R25/1900D SN FEW002 BKN007 OVC015 M00/M00 Q1005

Flugschulen am Flugplatz Bopfingen

Am Flugplatz Bopfingen gibt es leider keine Flugschule.

Benachbarte Flugplätze und Flugschulen

Es gibt 21 weitere Flugplätze in einem Umkreis von 50 km um den Flugplatz Bopfingen.

Jetzt anmelden

Passwort vergessen

Umfrage Archiv

Welche Navigations-App nutzt Ihr im Cockpit

SkyDemon
49.2 %
VFRnav
20.7 %
Ich nutze eine andere App
19.2 %
EasyVFR
5.7 %
Ich nutze gar keine App
4.7 %
ForeFlight
0.5 %
Stimmen: 193 | Diskussion (45)
Anzeige: Roland Aircraft
Statistik Alle Mitglieder

Aktuell sind 32 Besucher online, davon 4 Mitglieder und 28 Gäste.


Mitglieder online:
Drahtgestellflieger  pacificbirdy  Chris_EDNC  hennes 

Anzeige: Pocket FMS